Skip Navigation Links Skip Navigation Links

Current Weather

Middle Wallop, United Kingdom

For information only: do not use for flight planning or navigation.
Latest weather
Observation time Tuesday, September 28, 2021 11:50 AM BST
Local time Tuesday, September 28, 2021 12:17 PM BST
Flight conditions Visual Meteorological Conditions
Winds
Wind direction South (190°)
Wind speed 16 mph
Visibility 6.2 mi.
Present weather rain showers
Sky condition
Ceiling 25,000 ft. broken clouds
Cloud layer scattered clouds 2,300 ft.
Cloud layer few clouds 2,400 ft.
Cloud layer scattered clouds 8,000 ft.
Cloud layer broken clouds 25,000 ft.
Temperature 61°F
Dewpoint 54°F
Altimeter 29.97 in.Hg
Derived measurements
Relative humidity 77%
Density altitude 347 ft.
Remarks
Temporarily.
METAR EGVP 281050Z 19014KT 9999 FEW024 SCT080 BKN250 16/12 Q1015 TEMPO 70000 SHRA SCT023 RMK BLU TEMPO WHT

Settings

Location code

InnerDrive.Weather 4.0.6770.0 Release CLR 4.0.30319.42000
Copyright ©2018 Inner Drive Technology. All rights reserved. Portions Copyright ©1986-2018 David Braverman.

Find weather

Site navigation


Skip Navigation Links

Place info

Page info

PayPal - The safer, easier way to pay online!

Return home.

Copyright ©2021 Inner Drive Technology. Purveyors of fine, hand-crafted computer software. Page printed 2021-09-28T11:17:51 UTC.